aviador You're here:

KCOE Decoded Metar

COEUR D'ALENE in ID, USA
Report Time2018-05-21 15:56:00
UTC Time2018-05-21 16:53:12
Flight Rules vfr VFR
Wind150° at 04 kt
W.Decomp.*RWY 20: 1.4 kt HW 3.7 kt LCW
RWY 06: 1.3 kt HW 3.8 kt RCW
W.Rank150° ranks 16
Current wind is below 150° avg. (6.1)
Visibility9999 m
Phenomena:N/A
Clouds:Overcast 080 Hf
Expected CloudBase > 2,000 ft AGL from Temp-Dew spread
Ceiling8,000 ft
Temp17°C (ISA +7)
Dew Point12°C (73% RH)
AAT16.2°C
QNH1015 hPa
Density Alt3,222 ft
Elevation2,320 ft
Report Wrong Elevation
Raw Report
KCOE 211556Z AUTO 15004KT 10SM OVC080 17/12 A2996 RMK AO2 SLP154
T01670117=

Extra information for KCOE:More info

Metar Taf Metar & Taf Last 4 Metars F.Rules Stats Wind Profile Meteogram Temp Stats Airport Information Weather charts Add Link Nearby VenuesMetar ALERT Operation Metar Decoded Social comments

AIRNAV info for KCOE